Time;durP1;ratioP1;P1;durP2;ratioP2;P2;SDS_P1;SDS_P2;PMS_P1;PMS_P2;Temp;Humidity;BMP_temperature;BMP_pressure;BME280_temperature;BME280_humidity;BME280_pressure;Samples;Min_cycle;Max_cycle;Signal;HPM_P1;HPM_P2
2023/06/04 00:00:43;;;;;;;2.35;1.90;;;11.50;99.90;;;;;;6209568;23;20318;-41
2023/06/04 00:03:09;;;;;;;3.05;1.70;;;11.50;99.90;;;;;;6210034;23;20484;-40
2023/06/04 00:05:35;;;;;;;4.07;1.70;;;11.50;99.90;;;;;;6209574;23;20013;-41
2023/06/04 00:08:00;;;;;;;3.15;2.03;;;11.50;99.90;;;;;;6210501;23;20055;-41
2023/06/04 00:10:26;;;;;;;3.45;1.80;;;11.40;99.90;;;;;;6210579;23;20095;-41
2023/06/04 00:12:51;;;;;;;2.75;1.88;;;11.40;99.90;;;;;;6210136;23;20012;-42
2023/06/04 00:15:17;;;;;;;4.32;1.90;;;11.30;99.90;;;;;;6210294;23;20526;-40
2023/06/04 00:17:43;;;;;;;3.60;1.60;;;11.30;99.90;;;;;;6210005;23;20016;-42
2023/06/04 00:20:10;;;;;;;2.67;1.98;;;11.20;99.90;;;;;;6213401;23;20332;-40
2023/06/04 00:22:36;;;;;;;4.40;2.13;;;11.20;99.90;;;;;;6212694;23;20112;-41
2023/06/04 00:25:03;;;;;;;3.92;1.80;;;11.20;99.90;;;;;;6209758;23;20457;-42
2023/06/04 00:27:28;;;;;;;2.42;1.77;;;11.10;99.90;;;;;;6210183;23;20047;-41
2023/06/04 00:29:54;;;;;;;3.53;1.73;;;11.10;99.90;;;;;;6210853;23;20021;-44
2023/06/04 00:32:20;;;;;;;3.75;1.90;;;11.10;99.90;;;;;;6209949;23;20016;-43
2023/06/04 00:34:57;;;;;;;3.05;1.70;;;11.10;99.90;;;;;;6210584;23;20024;-41
2023/06/04 00:37:24;;;;;;;3.70;2.40;;;11.00;99.90;;;;;;6213413;23;20017;-42
2023/06/04 00:39:50;;;;;;;2.45;1.73;;;11.00;99.90;;;;;;6213672;23;20099;-40
2023/06/04 00:42:16;;;;;;;4.05;1.92;;;11.00;99.90;;;;;;6213193;23;20453;-40
2023/06/04 00:44:44;;;;;;;4.28;2.10;;;11.00;99.90;;;;;;6213114;23;20341;-42
2023/06/04 00:47:14;;;;;;;4.55;2.40;;;10.90;99.90;;;;;;6186805;23;20020;-41
2023/06/04 00:49:41;;;;;;;4.63;2.08;;;10.90;99.90;;;;;;6186612;23;20083;-40
2023/06/04 00:52:15;;;;;;;4.78;2.28;;;10.90;99.90;;;;;;6184748;23;20084;-40
2023/06/04 00:54:40;;;;;;;4.95;2.25;;;10.80;99.90;;;;;;6212367;23;20020;-41
2023/06/04 00:57:08;;;;;;;7.45;2.42;;;10.80;99.90;;;;;;6208576;23;20294;-40
2023/06/04 00:59:35;;;;;;;;;;;10.70;99.90;;;;;;6211624;23;20476;-41
2023/06/04 01:02:07;;;;;;;4.88;2.83;;;10.70;99.90;;;;;;6213671;23;19924;-40
2023/06/04 01:04:34;;;;;;;4.35;2.40;;;10.70;99.90;;;;;;6214002;23;20111;-40
2023/06/04 01:07:03;;;;;;;4.80;2.50;;;10.70;99.90;;;;;;6187572;23;20044;-40
2023/06/04 01:09:32;;;;;;;3.83;2.15;;;10.70;99.90;;;;;;6157088;23;20099;-41
2023/06/04 01:11:58;;;;;;;3.40;2.30;;;10.60;99.90;;;;;;6207223;23;20259;-40
2023/06/04 01:14:25;;;;;;;5.25;2.75;;;10.60;99.90;;;;;;6207418;23;20020;-40
2023/06/04 01:17:13;;;;;;;4.95;2.42;;;10.60;99.90;;;;;;6180913;23;20437;-42
2023/06/04 01:20:20;;;;;;;3.75;2.70;;;10.50;99.90;;;;;;6208099;23;20090;-40
2023/06/04 01:23:04;;;;;;;3.70;2.70;;;10.50;99.90;;;;;;6060697;23;20528;-40
2023/06/04 01:25:33;;;;;;;5.97;2.70;;;10.50;99.90;;;;;;6061891;23;20026;-40
2023/06/04 01:28:02;;;;;;;5.28;2.88;;;10.40;99.90;;;;;;6061120;23;20022;-40
2023/06/04 01:30:31;;;;;;;7.10;3.35;;;10.40;99.90;;;;;;6061373;23;20463;-42
2023/06/04 01:33:01;;;;;;;7.55;3.03;;;10.40;99.90;;;;;;6061234;23;20491;-42
2023/06/04 01:35:31;;;;;;;5.35;3.22;;;10.30;99.90;;;;;;6061240;23;20531;-40
2023/06/04 01:37:57;;;;;;;4.85;3.13;;;10.30;99.90;;;;;;6060788;23;20087;-42
2023/06/04 01:40:23;;;;;;;4.18;3.00;;;10.30;99.90;;;;;;6060835;23;20023;-40
2023/06/04 01:42:49;;;;;;;5.00;2.85;;;10.30;99.90;;;;;;6062145;23;20019;-41
2023/06/04 01:45:15;;;;;;;8.60;3.60;;;10.30;99.90;;;;;;6060889;23;20069;-42
2023/06/04 01:47:41;;;;;;;5.45;3.40;;;10.20;99.90;;;;;;6061001;23;20033;-40
2023/06/04 01:50:10;;;;;;;5.32;3.35;;;10.20;99.90;;;;;;6061016;23;20452;-42
2023/06/04 01:52:36;;;;;;;7.95;3.50;;;10.20;99.90;;;;;;6079827;23;20021;-40
2023/06/04 01:55:07;;;;;;;8.27;3.50;;;10.20;99.90;;;;;;6184925;23;20387;-40
2023/06/04 01:57:33;;;;;;;8.40;4.00;;;10.20;99.90;;;;;;6211451;23;20100;-41
2023/06/04 01:59:59;;;;;;;6.88;4.10;;;10.20;99.90;;;;;;6211478;23;20021;-40
2023/06/04 02:02:25;;;;;;;6.60;3.85;;;10.10;99.90;;;;;;6184731;23;20016;-42
2023/06/04 02:04:51;;;;;;;7.43;3.30;;;10.10;99.90;;;;;;6211268;23;20063;-39
2023/06/04 02:07:20;;;;;;;7.65;3.70;;;10.10;99.90;;;;;;6211896;23;20457;-40
2023/06/04 02:09:49;;;;;;;10.93;4.00;;;10.10;99.90;;;;;;6211535;23;20027;-42
2023/06/04 02:12:15;;;;;;;6.05;3.70;;;10.00;99.90;;;;;;6210739;23;20763;-40
2023/06/04 02:14:42;;;;;;;7.80;4.43;;;10.00;99.90;;;;;;6211689;23;20016;-40
2023/06/04 02:17:16;;;;;;;7.85;4.20;;;10.00;99.90;;;;;;6211093;23;20021;-41
2023/06/04 02:19:44;;;;;;;9.45;4.32;;;10.00;99.90;;;;;;6211422;23;20027;-41
2023/06/04 02:22:14;;;;;;;8.68;4.03;;;10.00;99.90;;;;;;6208027;23;20016;-40
2023/06/04 02:24:43;;;;;;;7.97;4.40;;;10.00;99.90;;;;;;6206734;23;20070;-39
2023/06/04 02:27:10;;;;;;;7.95;4.35;;;10.00;99.90;;;;;;6207770;23;20016;-42
2023/06/04 02:29:36;;;;;;;8.03;4.50;;;9.90;99.90;;;;;;6210206;23;20017;-41
2023/06/04 02:32:02;;;;;;;11.48;4.60;;;9.90;99.90;;;;;;6210977;23;20471;-40
2023/06/04 02:34:28;;;;;;;9.13;4.20;;;9.90;99.90;;;;;;6210369;23;20020;-40
2023/06/04 02:36:54;;;;;;;7.85;4.57;;;9.90;99.90;;;;;;6211376;23;20021;-39
2023/06/04 02:39:20;;;;;;;9.18;4.72;;;9.90;99.90;;;;;;6211108;23;20024;-39
2023/06/04 02:41:45;;;;;;;10.52;4.50;;;9.90;99.90;;;;;;6210643;23;20024;-44
2023/06/04 02:44:12;;;;;;;8.65;4.30;;;9.90;99.90;;;;;;6209958;23;20016;-40
2023/06/04 02:46:37;;;;;;;8.52;4.32;;;9.90;99.90;;;;;;6211151;23;20119;-42
2023/06/04 02:49:03;;;;;;;8.30;4.90;;;9.80;99.90;;;;;;6211206;23;20385;-40
2023/06/04 02:51:29;;;;;;;8.55;4.80;;;9.80;99.90;;;;;;6183973;23;20017;-40
2023/06/04 02:53:56;;;;;;;6.72;4.82;;;9.80;99.90;;;;;;6184305;23;20012;-40
2023/06/04 02:56:22;;;;;;;9.98;5.00;;;9.80;99.90;;;;;;6183852;23;20422;-42
2023/06/04 02:58:55;;;;;;;10.70;5.13;;;9.80;99.90;;;;;;6211028;23;20136;-40
2023/06/04 03:01:22;;;;;;;9.25;4.88;;;9.80;99.90;;;;;;6212866;23;20009;-40
2023/06/04 03:03:48;;;;;;;12.00;5.03;;;9.80;99.90;;;;;;6213659;23;20055;-40
2023/06/04 03:06:15;;;;;;;11.63;5.07;;;9.80;99.90;;;;;;6214633;23;20027;-40
2023/06/04 03:08:42;;;;;;;16.73;5.75;;;9.80;99.90;;;;;;6214506;23;20017;-40
2023/06/04 03:11:07;;;;;;;11.63;5.15;;;9.80;99.90;;;;;;6214945;23;20131;-40
2023/06/04 03:13:33;;;;;;;13.27;5.10;;;9.80;99.90;;;;;;6214872;23;20445;-39
2023/06/04 03:16:02;;;;;;;9.65;5.28;;;9.80;99.90;;;;;;6214659;23;20075;-40
2023/06/04 03:18:28;;;;;;;11.32;4.78;;;9.80;99.90;;;;;;6214584;23;20016;-41
2023/06/04 03:20:54;;;;;;;12.93;5.10;;;9.80;99.90;;;;;;6214518;23;20075;-39
2023/06/04 03:23:21;;;;;;;11.60;5.40;;;9.80;99.90;;;;;;6214721;23;20087;-40
2023/06/04 03:25:47;;;;;;;11.73;5.18;;;9.80;99.90;;;;;;6214550;23;20012;-41
2023/06/04 03:28:13;;;;;;;10.32;5.78;;;9.80;99.90;;;;;;6217989;23;20016;-41
2023/06/04 03:30:40;;;;;;;13.90;5.35;;;9.80;99.90;;;;;;6213073;23;20066;-43
2023/06/04 03:33:07;;;;;;;14.95;5.28;;;9.80;99.90;;;;;;6184638;23;20361;-40
2023/06/04 03:35:33;;;;;;;10.17;4.93;;;9.80;99.90;;;;;;6206121;23;20263;-42
2023/06/04 03:37:58;;;;;;;11.85;5.15;;;9.80;99.90;;;;;;6208102;23;20086;-40
2023/06/04 03:40:24;;;;;;;15.63;5.55;;;9.80;99.90;;;;;;6214483;23;20019;-40
2023/06/04 03:42:50;;;;;;;11.82;4.95;;;9.80;99.90;;;;;;6213749;23;20083;-40
2023/06/04 03:45:15;;;;;;;12.85;5.53;;;9.80;99.90;;;;;;6215223;23;20019;-40
2023/06/04 03:47:41;;;;;;;9.63;5.07;;;9.80;99.90;;;;;;6213973;23;20102;-41
2023/06/04 03:50:07;;;;;;;10.45;5.32;;;9.80;99.90;;;;;;6213166;23;20023;-40
2023/06/04 03:52:32;;;;;;;7.78;4.70;;;9.80;99.90;;;;;;6213419;23;20019;-41
2023/06/04 03:54:58;;;;;;;11.35;5.40;;;9.90;99.90;;;;;;6213440;23;20035;-41
2023/06/04 03:57:24;;;;;;;13.07;5.32;;;9.90;99.90;;;;;;6213592;23;20024;-40
2023/06/04 03:59:50;;;;;;;13.77;5.47;;;9.90;99.90;;;;;;6186579;23;20326;-40
2023/06/04 04:02:18;;;;;;;11.68;5.68;;;10.00;99.90;;;;;;6213904;23;20112;-41
2023/06/04 04:04:44;;;;;;;11.68;5.60;;;10.00;99.90;;;;;;6213197;23;20039;-42
2023/06/04 04:07:10;;;;;;;11.02;6.03;;;10.00;99.90;;;;;;6213371;23;20072;-42
2023/06/04 04:09:36;;;;;;;11.43;5.45;;;10.10;99.90;;;;;;6213358;23;20393;-40
2023/06/04 04:12:02;;;;;;;9.48;5.35;;;10.10;99.90;;;;;;6213313;23;20067;-42
2023/06/04 04:14:27;;;;;;;14.27;5.60;;;10.20;99.90;;;;;;6213366;23;20088;-42
2023/06/04 04:16:53;;;;;;;10.25;5.13;;;10.20;99.90;;;;;;6212823;23;20107;-40
2023/06/04 04:19:19;;;;;;;8.85;5.03;;;10.20;99.90;;;;;;6212866;23;20077;-40
2023/06/04 04:21:48;;;;;;;10.05;5.50;;;10.30;99.90;;;;;;6211622;23;20121;-41
2023/06/04 04:24:26;;;;;;;14.23;6.15;;;10.40;99.90;;;;;;6212112;23;20181;-40
2023/06/04 04:26:54;;;;;;;;;;;10.40;99.90;;;;;;6211978;23;20027;-41
2023/06/04 04:29:22;;;;;;;9.07;5.25;;;10.50;99.90;;;;;;6212396;23;20388;-42
2023/06/04 04:31:50;;;;;;;;;;;10.50;99.90;;;;;;6215443;23;20084;-39
2023/06/04 04:34:16;;;;;;;12.95;5.43;;;10.90;99.90;;;;;;6211406;23;19922;-40
2023/06/04 04:36:44;;;;;;;8.07;4.85;;;12.50;99.90;;;;;;6211093;23;20009;-42
2023/06/04 04:39:10;;;;;;;13.95;6.00;;;13.10;99.90;;;;;;6211951;23;20032;-41
2023/06/04 04:41:37;;;;;;;10.55;4.90;;;13.40;99.90;;;;;;6211356;23;20070;-43
2023/06/04 04:44:06;;;;;;;8.40;4.93;;;14.50;99.90;;;;;;6212912;23;20186;-41
2023/06/04 04:46:32;;;;;;;11.75;5.40;;;14.70;99.90;;;;;;6212013;23;20031;-41
2023/06/04 04:48:57;;;;;;;12.10;5.22;;;14.90;99.90;;;;;;6185411;23;20021;-40
2023/06/04 04:51:23;;;;;;;10.40;4.82;;;15.10;99.90;;;;;;6210671;23;20348;-42
2023/06/04 04:53:49;;;;;;;10.35;5.00;;;15.30;99.90;;;;;;6212575;23;20013;-43
2023/06/04 04:56:14;;;;;;;12.05;4.72;;;15.60;99.90;;;;;;6212078;23;20012;-40
2023/06/04 04:58:40;;;;;;;10.65;4.95;;;15.90;99.90;;;;;;6210979;23;20024;-41
2023/06/04 05:01:06;;;;;;;10.88;4.93;;;16.10;99.90;;;;;;6212168;23;20510;-40
2023/06/04 05:03:31;;;;;;;10.38;5.13;;;16.10;99.90;;;;;;6212860;23;20009;-40
2023/06/04 05:05:57;;;;;;;9.18;5.13;;;16.20;99.90;;;;;;6212402;23;20013;-42
2023/06/04 05:08:22;;;;;;;10.32;4.70;;;16.60;99.90;;;;;;6212958;23;20059;-41
2023/06/04 05:10:50;;;;;;;11.77;4.88;;;17.00;99.90;;;;;;6212509;23;20009;-41
2023/06/04 05:13:16;;;;;;;12.45;4.85;;;17.00;99.90;;;;;;6212282;23;20031;-41
2023/06/04 05:15:42;;;;;;;9.98;4.85;;;17.20;99.90;;;;;;6213334;23;20139;-40
2023/06/04 05:18:08;;;;;;;11.10;4.43;;;17.20;99.90;;;;;;6212976;23;20035;-41
2023/06/04 05:20:35;;;;;;;6.70;4.55;;;17.60;99.90;;;;;;6212782;23;20012;-41
2023/06/04 05:23:01;;;;;;;9.83;4.67;;;18.00;99.90;;;;;;6211944;23;20021;-41
2023/06/04 05:25:28;;;;;;;9.10;4.78;;;18.00;99.90;;;;;;6212711;23;20616;-42
2023/06/04 05:27:55;;;;;;;10.55;4.53;;;18.50;99.90;;;;;;6186749;23;20057;-44
2023/06/04 05:30:21;;;;;;;9.50;4.75;;;18.50;99.90;;;;;;6209773;23;20013;-41
2023/06/04 05:32:47;;;;;;;7.93;4.22;;;18.40;99.90;;;;;;6185458;23;20421;-43
2023/06/04 05:35:13;;;;;;;9.15;4.38;;;18.30;99.90;;;;;;6210317;23;20028;-42
2023/06/04 05:37:40;;;;;;;7.25;4.10;;;18.40;99.90;;;;;;6182766;23;20021;-43
2023/06/04 05:40:06;;;;;;;7.38;4.35;;;18.50;99.90;;;;;;6210341;23;20027;-41
2023/06/04 05:42:32;;;;;;;7.63;3.72;;;18.80;99.90;;;;;;6209369;23;20445;-42
2023/06/04 05:44:58;;;;;;;6.47;3.53;;;19.40;99.90;;;;;;6207201;23;20063;-41
2023/06/04 05:47:23;;;;;;;8.02;3.85;;;18.90;99.90;;;;;;6205367;23;20504;-43
2023/06/04 05:49:50;;;;;;;10.82;4.32;;;19.30;99.90;;;;;;6205622;23;20059;-43
2023/06/04 05:52:15;;;;;;;8.07;3.63;;;19.40;99.90;;;;;;6209449;23;20515;-42
2023/06/04 05:54:41;;;;;;;8.75;3.85;;;19.50;99.90;;;;;;6210757;23;20020;-42
2023/06/04 05:57:07;;;;;;;8.35;4.25;;;19.30;99.90;;;;;;6211049;23;20425;-42
2023/06/04 05:59:32;;;;;;;9.73;3.90;;;19.70;99.90;;;;;;6210881;23;20044;-43
2023/06/04 06:01:58;;;;;;;7.30;3.70;;;19.70;99.90;;;;;;6184458;23;20027;-42
2023/06/04 06:04:24;;;;;;;7.85;3.55;;;20.30;99.90;;;;;;6210329;23;20023;-41
2023/06/04 06:06:49;;;;;;;9.90;4.20;;;20.10;99.90;;;;;;6182262;23;20055;-43
2023/06/04 06:09:19;;;;;;;7.10;3.70;;;20.00;99.90;;;;;;6209005;23;20017;-41
2023/06/04 06:11:44;;;;;;;10.35;3.80;;;20.10;99.90;;;;;;6208688;23;20079;-41
2023/06/04 06:14:10;;;;;;;6.85;3.63;;;20.00;99.90;;;;;;6208553;23;20020;-40
2023/06/04 06:16:36;;;;;;;6.25;3.28;;;20.10;99.90;;;;;;6208352;23;20021;-42
2023/06/04 06:19:02;;;;;;;7.93;3.30;;;20.60;99.90;;;;;;6182019;23;20013;-43
2023/06/04 06:21:28;;;;;;;7.20;3.35;;;20.80;99.90;;;;;;6208997;23;20024;-40
2023/06/04 06:23:56;;;;;;;5.88;3.30;;;21.30;99.90;;;;;;6208883;23;20024;-40
2023/06/04 06:26:22;;;;;;;9.15;3.70;;;21.30;99.90;;;;;;6209587;23;20027;-42
2023/06/04 06:28:48;;;;;;;7.18;3.83;;;21.40;99.90;;;;;;6209311;23;20095;-42
2023/06/04 06:31:14;;;;;;;7.88;3.67;;;21.00;99.90;;;;;;6210188;23;20055;-41
2023/06/04 06:33:40;;;;;;;9.68;4.15;;;20.70;99.90;;;;;;6214832;23;20032;-40
2023/06/04 06:36:07;;;;;;;7.85;3.28;;;20.60;99.90;;;;;;6209081;23;20056;-40
2023/06/04 06:38:33;;;;;;;5.22;3.03;;;20.30;99.90;;;;;;6207195;23;20022;-42
2023/06/04 06:40:59;;;;;;;6.03;3.83;;;20.10;99.90;;;;;;6208643;23;20083;-42
2023/06/04 06:43:25;;;;;;;6.35;2.90;;;20.40;99.90;;;;;;6207633;23;20023;-42
2023/06/04 06:45:51;;;;;;;6.63;3.20;;;20.40;99.90;;;;;;6209277;23;20036;-41
2023/06/04 06:48:17;;;;;;;5.32;3.00;;;20.40;99.90;;;;;;6209227;23;20017;-41
2023/06/04 06:50:42;;;;;;;6.07;2.88;;;20.50;99.90;;;;;;6210471;23;20099;-43
2023/06/04 06:53:08;;;;;;;7.38;2.63;;;20.40;99.90;;;;;;6212012;23;20062;-43
2023/06/04 06:55:34;;;;;;;5.43;2.63;;;20.80;99.90;;;;;;6209073;23;20445;-41
2023/06/04 06:57:59;;;;;;;6.03;2.40;;;21.30;99.90;;;;;;6211431;23;20510;-42
2023/06/04 07:00:27;;;;;;;4.78;2.60;;;21.00;99.90;;;;;;6212600;23;20031;-41
2023/06/04 07:02:53;;;;;;;5.35;2.53;;;21.00;99.90;;;;;;6211555;23;20449;-43
2023/06/04 07:05:19;;;;;;;6.63;2.40;;;20.80;99.90;;;;;;6212517;23;20023;-42
2023/06/04 07:07:46;;;;;;;5.97;2.40;;;21.00;99.90;;;;;;6213201;23;20020;-44
2023/06/04 07:10:12;;;;;;;5.53;2.03;;;20.90;99.90;;;;;;6212802;23;20013;-41
2023/06/04 07:12:39;;;;;;;4.55;2.45;;;20.80;99.90;;;;;;6185815;23;20017;-42
2023/06/04 07:15:06;;;;;;;6.15;2.10;;;21.20;99.90;;;;;;6212522;23;20038;-43
2023/06/04 07:17:32;;;;;;;6.82;2.20;;;21.30;99.90;;;;;;6214066;23;20020;-43
2023/06/04 07:19:57;;;;;;;4.32;2.10;;;21.40;99.90;;;;;;6212186;23;20009;-41
2023/06/04 07:22:23;;;;;;;4.90;2.13;;;21.40;99.70;;;;;;6212267;23;20009;-41
2023/06/04 07:24:49;;;;;;;7.72;2.15;;;21.60;99.90;;;;;;6185958;23;20020;-43
2023/06/04 07:27:15;;;;;;;5.43;2.28;;;21.40;99.90;;;;;;6212224;23;20018;-43
2023/06/04 07:29:44;;;;;;;5.20;1.75;;;21.60;99.90;;;;;;6211487;23;20008;-41
2023/06/04 07:32:10;;;;;;;3.53;1.60;;;21.40;98.20;;;;;;6211034;23;20518;-45
2023/06/04 07:34:37;;;;;;;4.95;1.70;;;21.20;97.00;;;;;;6213124;23;20012;-42
2023/06/04 07:37:03;;;;;;;3.40;1.77;;;20.70;97.10;;;;;;6209823;23;20058;-41
2023/06/04 07:39:29;;;;;;;3.67;1.48;;;21.00;97.80;;;;;;6212317;23;20456;-42
2023/06/04 07:41:55;;;;;;;2.90;1.50;;;;;;;;;;6210857;23;20445;-43
2023/06/04 07:44:20;;;;;;;3.92;1.60;;;20.30;99.90;;;;;;6209461;23;20031;-42
2023/06/04 07:46:46;;;;;;;3.40;1.30;;;19.80;97.20;;;;;;6211715;23;20422;-41
2023/06/04 07:49:11;;;;;;;3.50;1.83;;;19.80;97.40;;;;;;6214787;23;20017;-42
2023/06/04 07:51:37;;;;;;;4.28;1.40;;;19.40;98.20;;;;;;6215127;23;20013;-43
2023/06/04 07:54:03;;;;;;;4.00;1.55;;;19.70;98.40;;;;;;6214356;23;20437;-42
2023/06/04 07:56:28;;;;;;;3.67;1.42;;;19.60;98.00;;;;;;6214335;23;20020;-41
2023/06/04 07:58:55;;;;;;;2.72;1.38;;;19.40;98.40;;;;;;6212497;23;20120;-42
2023/06/04 08:01:21;;;;;;;3.55;1.40;;;19.20;98.00;;;;;;6213114;23;20016;-40
2023/06/04 08:03:47;;;;;;;4.70;1.50;;;19.20;98.20;;;;;;6212922;23;20016;-41
2023/06/04 08:06:14;;;;;;;4.25;1.80;;;19.50;99.30;;;;;;6212892;23;20519;-41
2023/06/04 08:08:45;;;;;;;2.67;1.20;;;19.50;99.60;;;;;;6212566;23;20538;-43
2023/06/04 08:11:14;;;;;;;2.33;1.50;;;19.50;98.30;;;;;;6213606;23;20009;-40
2023/06/04 08:13:40;;;;;;;2.70;1.33;;;19.50;98.00;;;;;;6212718;23;20017;-43
2023/06/04 08:16:06;;;;;;;3.92;1.20;;;19.40;98.40;;;;;;6186816;23;20499;-43
2023/06/04 08:18:31;;;;;;;5.00;1.75;;;19.50;98.40;;;;;;6213647;23;20088;-40
2023/06/04 08:20:57;;;;;;;3.40;1.48;;;19.70;98.90;;;;;;6213607;23;20092;-40
2023/06/04 08:23:22;;;;;;;2.95;1.42;;;19.60;99.30;;;;;;6214214;23;20013;-41
2023/06/04 08:25:48;;;;;;;2.13;1.45;;;19.90;98.40;;;;;;6213336;23;20012;-42
2023/06/04 08:28:15;;;;;;;4.45;1.55;;;20.00;98.50;;;;;;6212910;23;20024;-42
2023/06/04 08:30:42;;;;;;;4.23;1.90;;;20.40;98.30;;;;;;6213914;23;20563;-41
2023/06/04 08:33:07;;;;;;;8.60;4.25;;;20.40;98.10;;;;;;6213841;23;20018;-42
2023/06/04 08:35:33;;;;;;;12.60;6.57;;;20.60;99.20;;;;;;6212588;23;20009;-41
2023/06/04 08:37:59;;;;;;;4.25;2.13;;;20.60;99.40;;;;;;6213992;23;20016;-41
2023/06/04 08:40:25;;;;;;;4.00;1.70;;;20.50;98.50;;;;;;6186919;23;20012;-43
2023/06/04 08:42:57;;;;;;;4.05;1.80;;;20.50;99.00;;;;;;6212320;23;20492;-43
2023/06/04 08:45:24;;;;;;;6.72;1.50;;;20.30;98.70;;;;;;6213328;23;20058;-41
2023/06/04 08:47:53;;;;;;;4.07;1.65;;;20.30;98.20;;;;;;6214095;23;20020;-42
2023/06/04 08:50:21;;;;;;;2.38;1.63;;;20.50;98.10;;;;;;6213282;23;20032;-43
2023/06/04 08:52:47;;;;;;;3.72;1.52;;;20.50;98.60;;;;;;6213520;23;20071;-41
2023/06/04 08:55:14;;;;;;;5.45;1.90;;;20.50;98.40;;;;;;6213526;23;20009;-41
2023/06/04 08:57:40;;;;;;;4.03;1.77;;;20.60;98.20;;;;;;6213573;23;20071;-41
2023/06/04 09:00:08;;;;;;;4.15;1.73;;;20.60;98.30;;;;;;6213614;23;20024;-41
2023/06/04 09:02:37;;;;;;;4.05;2.10;;;20.80;98.40;;;;;;6187040;23;20611;-42
2023/06/04 09:05:05;;;;;;;5.10;2.00;;;21.00;98.50;;;;;;6213804;23;20012;-40
2023/06/04 09:07:34;;;;;;;2.88;1.65;;;20.80;97.80;;;;;;6187282;23;20151;-42
2023/06/04 09:10:00;;;;;;;3.13;1.52;;;21.00;97.30;;;;;;6213451;23;20457;-42
2023/06/04 09:12:27;;;;;;;4.40;1.80;;;20.90;97.60;;;;;;6213576;23;20092;-42
2023/06/04 09:14:53;;;;;;;3.47;1.50;;;21.00;96.80;;;;;;6211338;23;20013;-41
2023/06/04 09:17:23;;;;;;;4.50;1.15;;;21.00;93.70;;;;;;6211594;23;20012;-41
2023/06/04 09:19:50;;;;;;;3.20;1.50;;;21.20;95.80;;;;;;6212817;23;20086;-41
2023/06/04 09:22:16;;;;;;;1.73;1.23;;;21.10;94.80;;;;;;6213152;23;20008;-41
2023/06/04 09:24:46;;;;;;;4.80;1.50;;;21.10;93.90;;;;;;6213426;23;20055;-43
2023/06/04 09:27:17;;;;;;;3.80;1.35;;;21.10;94.60;;;;;;6214235;23;20020;-41
2023/06/04 09:29:53;;;;;;;3.97;1.80;;;21.20;95.00;;;;;;6216888;23;20091;-43
2023/06/04 09:32:22;;;;;;;3.53;1.88;;;21.20;94.80;;;;;;6188025;23;20027;-42
2023/06/04 09:34:48;;;;;;;5.10;1.55;;;21.00;94.80;;;;;;6214488;23;20508;-41
2023/06/04 09:37:19;;;;;;;5.93;1.30;;;21.20;94.80;;;;;;6212924;23;20059;-41
2023/06/04 09:39:55;;;;;;;5.25;1.35;;;21.20;94.50;;;;;;6215718;23;20075;-41
2023/06/04 09:42:22;;;;;;;5.47;1.65;;;21.10;93.80;;;;;;6214393;23;20016;-41
2023/06/04 09:44:47;;;;;;;3.67;1.52;;;21.10;94.30;;;;;;6215541;23;20043;-42
2023/06/04 09:47:13;;;;;;;3.15;1.40;;;21.10;94.60;;;;;;6214220;23;20040;-43
2023/06/04 09:49:46;;;;;;;3.40;1.60;;;21.50;95.00;;;;;;6213834;23;20040;-43
2023/06/04 09:52:13;;;;;;;3.53;1.80;;;21.90;95.40;;;;;;6212835;23;20051;-41
2023/06/04 09:54:41;;;;;;;5.45;1.70;;;21.70;94.50;;;;;;6214977;23;20424;-41
2023/06/04 09:57:17;;;;;;;3.45;1.80;;;21.50;93.70;;;;;;6213583;23;20080;-43
2023/06/04 09:59:49;;;;;;;4.40;1.45;;;21.70;94.10;;;;;;6214940;23;20378;-43
2023/06/04 10:02:19;;;;;;;4.53;1.80;;;22.00;94.30;;;;;;6214270;23;20051;-42
2023/06/04 10:04:48;;;;;;;3.15;1.48;;;22.00;93.70;;;;;;6211145;23;20067;-42
2023/06/04 10:07:15;;;;;;;3.80;1.50;;;21.80;93.10;;;;;;6210259;23;20019;-41
2023/06/04 10:09:45;;;;;;;2.35;1.13;;;21.80;93.40;;;;;;6212379;23;20028;-41
2023/06/04 10:12:17;;;;;;;4.90;1.58;;;21.90;93.80;;;;;;6211232;23;20017;-41
2023/06/04 10:14:51;;;;;;;4.78;1.45;;;22.10;94.50;;;;;;6209597;23;20055;-42
2023/06/04 10:17:21;;;;;;;6.05;1.63;;;22.30;93.60;;;;;;6211598;23;20230;-40
2023/06/04 10:19:49;;;;;;;2.78;1.35;;;22.20;92.80;;;;;;6211743;23;20021;-42
2023/06/04 10:22:14;;;;;;;;;;;22.30;92.90;;;;;;6186764;23;20009;-41
2023/06/04 10:24:40;;;;;;;2.92;1.45;;;22.30;92.80;;;;;;6186666;23;19916;-41
2023/06/04 10:27:10;;;;;;;2.47;1.00;;;22.30;91.40;;;;;;6211533;23;20432;-41
2023/06/04 10:29:36;;;;;;;3.47;1.55;;;22.40;90.20;;;;;;6212974;23;20017;-43
2023/06/04 10:32:03;;;;;;;1.63;1.10;;;22.50;90.30;;;;;;6159494;23;20028;-43
2023/06/04 10:34:28;;;;;;;2.75;1.30;;;22.40;87.20;;;;;;6186531;23;20020;-41
2023/06/04 10:36:55;;;;;;;2.92;1.25;;;22.80;89.50;;;;;;6209571;23;20131;-42
2023/06/04 10:39:34;;;;;;;2.85;1.20;;;22.80;91.10;;;;;;6213741;23;20013;-41
2023/06/04 10:42:05;;;;;;;5.63;1.65;;;22.90;91.60;;;;;;6214890;23;20017;-42
2023/06/04 10:44:32;;;;;;;2.75;1.20;;;22.90;91.20;;;;;;6212414;23;20013;-42
2023/06/04 10:46:58;;;;;;;5.07;1.30;;;23.10;88.40;;;;;;6213429;23;20095;-43
2023/06/04 10:49:28;;;;;;;3.15;1.15;;;23.20;90.00;;;;;;6213326;23;20017;-43
2023/06/04 10:52:03;;;;;;;4.15;1.25;;;23.20;88.20;;;;;;6213170;23;20029;-41
2023/06/04 10:54:29;;;;;;;4.78;1.55;;;22.90;88.40;;;;;;6213118;23;20433;-42
2023/06/04 10:56:55;;;;;;;4.70;1.40;;;22.90;87.80;;;;;;6211845;23;20646;-41
2023/06/04 10:59:22;;;;;;;1.98;1.30;;;22.80;87.50;;;;;;6213890;23;20051;-41
2023/06/04 11:01:47;;;;;;;4.43;1.58;;;22.90;87.40;;;;;;6213804;23;20013;-44
2023/06/04 11:04:23;;;;;;;2.85;1.30;;;23.00;86.90;;;;;;6214598;23;20031;-42
2023/06/04 11:07:04;;;;;;;5.45;1.50;;;23.00;88.00;;;;;;6214229;23;20095;-41
2023/06/04 11:09:31;;;;;;;2.70;1.35;;;22.60;87.90;;;;;;6187039;23;20047;-42
2023/06/04 11:11:58;;;;;;;4.20;1.40;;;22.80;88.30;;;;;;6186612;23;20008;-42
2023/06/04 11:14:24;;;;;;;3.38;1.42;;;22.70;86.70;;;;;;6213453;23;20083;-41
2023/06/04 11:16:49;;;;;;;4.72;1.63;;;22.70;86.60;;;;;;6213293;23;20432;-41
2023/06/04 11:19:15;;;;;;;3.47;1.50;;;22.70;86.50;;;;;;6213473;23;20013;-41
2023/06/04 11:21:41;;;;;;;3.90;1.50;;;22.70;86.70;;;;;;6184877;23;20390;-43
2023/06/04 11:24:07;;;;;;;2.15;1.50;;;22.80;85.30;;;;;;6212776;23;20017;-41
2023/06/04 11:26:37;;;;;;;2.25;1.10;;;22.70;85.60;;;;;;6213761;23;20016;-41
2023/06/04 11:29:07;;;;;;;2.45;1.35;;;22.80;84.70;;;;;;6214150;23;20012;-42
2023/06/04 11:31:46;;;;;;;3.03;1.40;;;22.80;84.50;;;;;;6213773;23;20319;-42
2023/06/04 11:34:28;;;;;;;3.08;1.50;;;23.00;85.30;;;;;;6212744;23;20012;-42
2023/06/04 11:36:54;;;;;;;3.83;1.48;;;23.20;84.50;;;;;;6213840;23;20020;-44
2023/06/04 11:39:21;;;;;;;3.88;1.42;;;23.10;84.50;;;;;;6211708;23;20040;-42
2023/06/04 11:41:47;;;;;;;3.17;1.53;;;23.10;85.40;;;;;;6214090;23;20585;-41
2023/06/04 11:44:13;;;;;;;2.80;1.17;;;23.30;87.60;;;;;;6212321;23;20016;-41
2023/06/04 11:46:45;;;;;;;3.90;1.67;;;23.40;86.60;;;;;;6186737;23;20013;-42
2023/06/04 11:49:18;;;;;;;4.63;1.73;;;23.40;85.30;;;;;;6211062;23;20479;-41
2023/06/04 11:51:52;;;;;;;2.67;1.40;;;22.90;84.70;;;;;;6213068;23;20017;-41
2023/06/04 11:54:19;;;;;;;3.47;1.30;;;23.00;84.70;;;;;;6213334;23;20120;-40
2023/06/04 11:56:46;;;;;;;4.18;1.35;;;23.00;85.70;;;;;;6184932;23;20518;-40
2023/06/04 11:59:16;;;;;;;3.75;1.52;;;23.20;86.30;;;;;;6212269;23;20024;-41
2023/06/04 12:01:46;;;;;;;6.30;1.45;;;23.40;85.90;;;;;;6212830;23;20024;-41
2023/06/04 12:04:19;;;;;;;3.70;1.52;;;23.10;82.70;;;;;;6212664;23;20008;-41
2023/06/04 12:06:59;;;;;;;2.65;1.50;;;23.20;86.00;;;;;;6212719;23;20306;-41
2023/06/04 12:09:28;;;;;;;2.13;1.60;;;23.20;83.30;;;;;;6212720;23;20452;-44
2023/06/04 12:12:04;;;;;;;1.70;1.42;;;23.30;83.40;;;;;;6213272;23;20017;-42
2023/06/04 12:14:31;;;;;;;3.53;1.77;;;23.40;82.40;;;;;;6212578;23;20096;-44
2023/06/04 12:17:01;;;;;;;2.35;1.50;;;23.30;82.40;;;;;;6184580;23;20413;-40
2023/06/04 12:19:27;;;;;;;6.57;1.27;;;23.40;83.60;;;;;;6211618;23;20132;-41
2023/06/04 12:22:05;;;;;;;3.93;1.60;;;23.40;83.20;;;;;;6160940;23;20078;-40
2023/06/04 12:24:35;;;;;;;4.47;1.35;;;23.20;81.80;;;;;;6213280;23;20035;-42
2023/06/04 12:27:06;;;;;;;4.38;2.00;;;23.20;83.30;;;;;;6209726;23;20357;-42
2023/06/04 12:29:32;;;;;;;5.80;2.00;;;23.10;84.20;;;;;;6213076;23;20060;-41
2023/06/04 12:32:11;;;;;;;2.60;1.50;;;23.20;83.80;;;;;;6186129;23;20016;-43
2023/06/04 12:34:37;;;;;;;2.25;1.48;;;23.00;84.00;;;;;;6212946;23;20012;-41
2023/06/04 12:37:05;;;;;;;4.60;1.65;;;23.10;84.20;;;;;;6212828;23;20009;-43
2023/06/04 12:39:32;;;;;;;2.55;1.33;;;23.00;84.50;;;;;;6160258;23;20008;-42
2023/06/04 12:41:57;;;;;;;3.22;1.50;;;23.30;84.90;;;;;;6187620;23;20092;-40
2023/06/04 12:44:23;;;;;;;3.83;1.50;;;23.20;84.70;;;;;;6208601;23;20052;-40
2023/06/04 12:46:49;;;;;;;3.05;1.83;;;23.10;83.90;;;;;;6211745;23;20020;-40
2023/06/04 12:49:15;;;;;;;2.55;1.90;;;23.60;84.90;;;;;;6211783;23;20021;-41